Time;durP1;ratioP1;P1;durP2;ratioP2;P2;SDS_P1;SDS_P2;PMS_P1;PMS_P2;Temp;Humidity;BMP_temperature;BMP_pressure;BME280_temperature;BME280_humidity;BME280_pressure;Samples;Min_cycle;Max_cycle;Signal;HPM_P1;HPM_P2
2022/05/19 00:02:15;;;;;;;4.40;4.00;;;25.10;57.70;;;;;;5000519;28;20427;-70
2022/05/19 00:04:41;;;;;;;4.77;4.37;;;25.20;57.60;;;;;;4999910;28;20432;-70
2022/05/19 00:07:08;;;;;;;5.13;3.90;;;25.20;57.50;;;;;;4998983;28;20239;-71
2022/05/19 00:09:34;;;;;;;4.30;3.90;;;25.20;57.60;;;;;;5001815;28;20498;-71
2022/05/19 00:12:04;;;;;;;3.97;3.67;;;25.20;57.50;;;;;;5001513;28;20446;-71
2022/05/19 00:14:29;;;;;;;4.50;4.03;;;25.20;57.40;;;;;;5000869;28;20476;-71
2022/05/19 00:16:57;;;;;;;6.83;4.30;;;25.20;57.40;;;;;;5000486;28;20587;-71
2022/05/19 00:19:24;;;;;;;5.37;4.10;;;25.10;57.40;;;;;;5000534;28;20428;-71
2022/05/19 00:21:50;;;;;;;5.10;3.77;;;25.10;57.50;;;;;;4999726;28;20486;-71
2022/05/19 00:24:16;;;;;;;5.10;4.57;;;25.00;57.70;;;;;;4998771;28;20866;-71
2022/05/19 00:26:42;;;;;;;4.10;3.80;;;25.00;57.70;;;;;;5003971;28;20520;-69
2022/05/19 00:29:08;;;;;;;4.10;3.70;;;25.00;57.80;;;;;;4998910;28;20459;-69
2022/05/19 00:31:34;;;;;;;5.70;4.03;;;24.90;57.60;;;;;;5001267;28;20190;-69
2022/05/19 00:34:01;;;;;;;5.70;4.50;;;24.90;57.70;;;;;;5000344;28;20255;-69
2022/05/19 00:36:27;;;;;;;4.50;3.90;;;24.90;57.90;;;;;;4997909;28;20483;-69
2022/05/19 00:38:53;;;;;;;6.07;4.40;;;24.90;58.00;;;;;;4999589;28;20428;-69
2022/05/19 00:41:19;;;;;;;6.13;3.60;;;24.90;57.90;;;;;;4998920;28;21013;-70
2022/05/19 00:43:56;;;;;;;8.13;3.70;;;24.90;57.90;;;;;;4999604;28;20539;-68
2022/05/19 00:46:26;;;;;;;4.67;3.80;;;24.80;58.10;;;;;;4998113;28;20971;-67
2022/05/19 00:49:01;;;;;;;4.60;3.90;;;24.70;57.90;;;;;;4998505;28;22366;-68
2022/05/19 00:51:56;;;;;;;5.60;3.97;;;24.70;58.10;;;;;;5000324;28;20450;-68
2022/05/19 00:54:26;;;;;;;5.70;3.77;;;24.70;58.00;;;;;;5000475;28;20428;-69
2022/05/19 00:56:59;;;;;;;4.07;3.60;;;24.70;58.00;;;;;;4998487;28;20459;-70
2022/05/19 00:59:38;;;;;;;6.17;4.03;;;24.50;58.10;;;;;;4996698;28;20425;-69
2022/05/19 01:02:07;;;;;;;4.97;4.47;;;24.30;58.10;;;;;;4999574;28;20515;-68
2022/05/19 01:04:40;;;;;;;4.13;3.53;;;24.20;58.30;;;;;;5002453;28;21128;-68
2022/05/19 01:07:09;;;;;;;5.17;4.20;;;24.30;58.70;;;;;;4985981;28;20523;-68
2022/05/19 01:09:37;;;;;;;6.23;4.10;;;24.20;58.40;;;;;;4999238;28;20441;-68
2022/05/19 01:12:04;;;;;;;5.23;4.10;;;24.30;58.40;;;;;;4999545;28;20436;-68
2022/05/19 01:14:32;;;;;;;4.40;4.03;;;24.10;58.40;;;;;;5003907;28;20444;-69
2022/05/19 01:16:57;;;;;;;4.70;3.70;;;24.10;58.60;;;;;;4999260;28;20504;-68
2022/05/19 01:19:35;;;;;;;4.50;4.10;;;24.20;58.70;;;;;;5002343;28;20526;-68
2022/05/19 01:22:27;;;;;;;4.20;3.83;;;24.20;58.70;;;;;;5004030;28;20662;-68
2022/05/19 01:25:14;;;;;;;4.70;3.60;;;24.20;58.70;;;;;;5001008;28;21046;-68
2022/05/19 01:27:40;;;;;;;4.13;3.73;;;24.30;58.50;;;;;;4999234;28;20471;-67
2022/05/19 01:30:08;;;;;;;3.80;3.50;;;24.30;58.60;;;;;;5000843;28;20529;-67
2022/05/19 01:32:34;;;;;;;5.93;4.00;;;24.30;58.50;;;;;;5001596;28;20276;-68
2022/05/19 01:35:00;;;;;;;5.33;3.57;;;24.30;58.50;;;;;;5000520;28;20559;-69
2022/05/19 01:37:26;;;;;;;4.40;4.00;;;24.30;58.60;;;;;;5000394;28;20209;-69
2022/05/19 01:40:03;;;;;;;4.63;4.00;;;24.30;58.60;;;;;;5000462;28;20524;-70
2022/05/19 01:42:56;;;;;;;4.33;3.93;;;24.30;58.60;;;;;;5000585;28;20443;-70
2022/05/19 01:45:46;;;;;;;4.33;3.20;;;24.20;58.60;;;;;;4995558;28;20445;-70
2022/05/19 01:48:53;;;;;;;5.00;3.53;;;24.10;58.70;;;;;;4997837;28;20825;-70
2022/05/19 01:51:56;;;;;;;4.50;4.10;;;24.10;58.80;;;;;;4997674;28;20479;-70
2022/05/19 01:54:35;;;;;;;4.10;3.70;;;24.10;59.00;;;;;;4999030;28;20527;-70
2022/05/19 01:57:07;;;;;;;4.00;3.70;;;24.10;59.00;;;;;;5001349;28;20469;-70
2022/05/19 01:59:43;;;;;;;11.60;4.17;;;24.00;59.10;;;;;;5001907;28;20459;-70
2022/05/19 02:02:15;;;;;;;7.90;4.27;;;24.00;59.20;;;;;;5003259;28;20419;-70
2022/05/19 02:04:53;;;;;;;3.83;3.50;;;23.90;59.10;;;;;;4989967;28;20427;-70
2022/05/19 02:07:20;;;;;;;4.27;3.87;;;23.90;59.20;;;;;;5001677;28;20472;-70
2022/05/19 02:10:02;;;;;;;5.43;3.60;;;23.90;59.30;;;;;;5003824;28;20495;-70
2022/05/19 02:12:33;;;;;;;4.37;3.97;;;23.80;59.40;;;;;;4999308;28;20519;-70
2022/05/19 02:15:05;;;;;;;4.03;3.73;;;23.80;59.50;;;;;;5000649;28;20583;-69
2022/05/19 02:17:32;;;;;;;4.73;4.17;;;23.70;59.50;;;;;;5002589;28;20467;-69
2022/05/19 02:20:03;;;;;;;4.50;4.10;;;23.60;60.00;;;;;;5000375;28;20424;-69
2022/05/19 02:22:34;;;;;;;4.73;4.23;;;23.60;59.90;;;;;;4999054;28;21177;-69
2022/05/19 02:25:35;;;;;;;5.33;3.80;;;23.60;59.70;;;;;;5003790;28;20440;-70
2022/05/19 02:28:08;;;;;;;5.10;3.93;;;23.60;59.80;;;;;;4995992;28;20514;-70
2022/05/19 02:30:37;;;;;;;3.97;3.60;;;23.60;59.70;;;;;;4998971;28;20450;-70
2022/05/19 02:33:04;;;;;;;5.97;3.90;;;23.50;59.80;;;;;;5002560;28;20456;-70
2022/05/19 02:35:30;;;;;;;4.00;3.40;;;23.50;59.70;;;;;;4988761;28;20496;-70
2022/05/19 02:37:57;;;;;;;6.40;3.97;;;23.50;59.60;;;;;;4997337;28;20496;-70
2022/05/19 02:40:25;;;;;;;3.80;3.40;;;23.50;59.50;;;;;;5000650;28;20887;-71
2022/05/19 02:42:51;;;;;;;4.63;4.10;;;23.50;59.50;;;;;;5004605;28;20546;-69
2022/05/19 02:45:19;;;;;;;5.20;3.67;;;23.50;59.60;;;;;;5001484;28;20440;-69
2022/05/19 02:47:45;;;;;;;3.80;3.47;;;23.50;59.70;;;;;;5000155;28;20557;-69
2022/05/19 02:50:12;;;;;;;4.20;3.40;;;23.40;59.80;;;;;;4991527;28;20603;-68
2022/05/19 02:52:37;;;;;;;5.77;4.20;;;23.40;59.90;;;;;;5002085;28;20208;-69
2022/05/19 02:55:03;;;;;;;6.13;3.77;;;23.40;59.90;;;;;;4989233;28;21025;-69
2022/05/19 02:57:29;;;;;;;4.17;3.80;;;23.30;59.80;;;;;;5002792;28;20235;-70
2022/05/19 02:59:54;;;;;;;4.10;3.80;;;23.30;59.80;;;;;;5002810;28;20428;-68
2022/05/19 03:02:20;;;;;;;4.40;3.53;;;23.30;59.80;;;;;;5002586;28;20193;-68
2022/05/19 03:04:46;;;;;;;6.10;3.83;;;23.30;59.90;;;;;;5002623;28;20223;-68
2022/05/19 03:07:11;;;;;;;4.50;3.60;;;23.20;60.00;;;;;;5001551;28;20209;-68
2022/05/19 03:09:40;;;;;;;3.87;3.57;;;23.20;60.20;;;;;;5004041;28;20268;-68
2022/05/19 03:12:07;;;;;;;4.50;3.77;;;23.20;60.10;;;;;;5005263;28;20185;-69
2022/05/19 03:14:33;;;;;;;4.33;3.93;;;23.10;60.20;;;;;;5003516;28;20440;-69
2022/05/19 03:16:58;;;;;;;4.60;3.73;;;23.10;60.40;;;;;;4998158;28;20486;-69
2022/05/19 03:19:24;;;;;;;6.47;4.50;;;23.10;60.50;;;;;;4999029;28;20186;-69
2022/05/19 03:21:49;;;;;;;5.60;4.10;;;23.10;60.60;;;;;;5000031;28;20222;-69
2022/05/19 03:24:15;;;;;;;5.70;4.53;;;23.10;60.70;;;;;;4999584;28;20188;-69
2022/05/19 03:26:41;;;;;;;4.03;3.70;;;23.00;60.60;;;;;;4998617;28;20260;-69
2022/05/19 03:29:06;;;;;;;4.60;3.63;;;23.00;60.70;;;;;;5000523;28;20650;-69
2022/05/19 03:31:33;;;;;;;4.50;4.00;;;23.00;60.70;;;;;;5001799;28;20232;-69
2022/05/19 03:33:59;;;;;;;3.63;3.33;;;22.90;60.90;;;;;;5000897;28;20185;-69
2022/05/19 03:36:25;;;;;;;4.00;3.60;;;23.00;60.90;;;;;;5000275;28;20925;-69
2022/05/19 03:38:50;;;;;;;3.90;3.50;;;22.90;60.80;;;;;;4985878;28;20185;-68
2022/05/19 03:41:16;;;;;;;5.70;4.70;;;22.90;61.00;;;;;;5000032;28;20208;-70
2022/05/19 03:43:41;;;;;;;5.20;4.37;;;22.90;61.00;;;;;;4988357;28;20185;-70
2022/05/19 03:46:07;;;;;;;5.27;4.10;;;22.90;61.00;;;;;;4998729;28;20669;-70
2022/05/19 03:48:37;;;;;;;3.43;3.10;;;22.90;61.20;;;;;;5002418;28;20268;-69
2022/05/19 03:51:07;;;;;;;6.83;5.17;;;22.80;61.60;;;;;;4997756;28;20201;-70
2022/05/19 03:53:32;;;;;;;6.53;4.40;;;22.80;61.40;;;;;;4996234;28;20439;-70
2022/05/19 03:55:58;;;;;;;5.23;3.73;;;22.80;61.20;;;;;;4997865;28;20472;-69
2022/05/19 03:58:24;;;;;;;4.60;4.10;;;22.80;61.40;;;;;;5001784;28;20212;-70
2022/05/19 04:00:49;;;;;;;4.97;4.00;;;22.70;61.30;;;;;;4996779;28;20182;-70
2022/05/19 04:03:15;;;;;;;5.07;4.60;;;22.70;61.50;;;;;;4997819;28;20189;-70
2022/05/19 04:05:41;;;;;;;10.27;4.60;;;22.70;61.70;;;;;;4998883;28;20616;-68
2022/05/19 04:08:07;;;;;;;6.70;6.10;;;22.60;62.60;;;;;;4997719;28;20502;-68
2022/05/19 04:10:33;;;;;;;3.90;3.50;;;22.70;62.50;;;;;;5000247;28;20429;-68
2022/05/19 04:12:59;;;;;;;6.30;4.80;;;22.60;62.30;;;;;;5000962;28;20240;-67
2022/05/19 04:15:25;;;;;;;4.07;3.67;;;22.60;62.20;;;;;;5001235;28;20210;-69
2022/05/19 04:17:51;;;;;;;5.10;3.77;;;22.60;62.20;;;;;;5000072;28;20469;-69
2022/05/19 04:20:17;;;;;;;4.03;3.63;;;22.60;62.00;;;;;;4999654;28;20435;-69
2022/05/19 04:22:42;;;;;;;4.17;3.77;;;22.60;62.50;;;;;;5000219;28;20180;-69
2022/05/19 04:25:10;;;;;;;4.00;3.33;;;22.60;62.50;;;;;;5002365;28;20185;-69
2022/05/19 04:27:36;;;;;;;5.40;3.60;;;22.60;63.00;;;;;;4999454;28;20748;-69
2022/05/19 04:30:03;;;;;;;3.93;3.50;;;22.60;63.10;;;;;;5001897;28;20488;-68
2022/05/19 04:32:28;;;;;;;3.73;3.43;;;22.60;63.00;;;;;;5000904;28;20173;-68
2022/05/19 04:34:54;;;;;;;4.30;3.97;;;22.60;63.00;;;;;;5001321;28;20466;-68
2022/05/19 04:37:20;;;;;;;5.13;3.60;;;22.60;63.40;;;;;;5000632;28;20227;-68
2022/05/19 04:39:45;;;;;;;4.40;3.60;;;22.60;63.40;;;;;;5001357;28;20545;-68
2022/05/19 04:42:12;;;;;;;4.40;3.70;;;22.60;63.10;;;;;;4998972;28;20701;-69
2022/05/19 04:44:39;;;;;;;4.17;3.77;;;22.60;62.80;;;;;;4998581;28;20185;-69
2022/05/19 04:47:05;;;;;;;5.10;3.60;;;22.60;62.80;;;;;;4999525;28;20999;-68
2022/05/19 04:49:31;;;;;;;4.13;3.60;;;22.50;63.70;;;;;;4998395;28;20489;-69
2022/05/19 04:51:57;;;;;;;4.90;3.73;;;22.40;64.10;;;;;;4996735;28;21304;-69
2022/05/19 04:54:23;;;;;;;4.67;4.17;;;22.40;64.00;;;;;;4999699;28;20665;-69
2022/05/19 04:56:49;;;;;;;6.90;3.90;;;22.40;63.10;;;;;;4998006;28;20204;-69
2022/05/19 04:59:15;;;;;;;6.70;3.87;;;22.40;64.00;;;;;;4998738;28;20435;-69
2022/05/19 05:01:46;;;;;;;8.20;3.90;;;22.40;63.70;;;;;;4997564;28;20424;-69
2022/05/19 05:04:13;;;;;;;4.87;3.93;;;22.40;63.90;;;;;;4985681;28;20704;-69
2022/05/19 05:06:39;;;;;;;4.70;4.07;;;22.50;64.10;;;;;;4997016;28;20831;-69
2022/05/19 05:09:05;;;;;;;4.73;3.77;;;22.50;64.80;;;;;;4996180;28;20420;-68
2022/05/19 05:11:31;;;;;;;5.10;4.13;;;22.50;64.20;;;;;;4998660;28;20834;-69
2022/05/19 05:13:57;;;;;;;4.70;4.00;;;22.60;64.20;;;;;;4999982;28;20514;-69
2022/05/19 05:16:23;;;;;;;4.90;3.70;;;22.60;63.80;;;;;;5000635;28;20473;-68
2022/05/19 05:18:48;;;;;;;4.90;3.90;;;22.50;64.50;;;;;;4995993;28;20480;-69
2022/05/19 05:21:14;;;;;;;5.27;3.80;;;22.60;63.90;;;;;;4999155;28;20188;-68
2022/05/19 05:23:41;;;;;;;4.10;3.47;;;22.60;64.40;;;;;;4998931;28;20182;-70
2022/05/19 05:26:07;;;;;;;4.80;4.03;;;22.60;65.00;;;;;;4997380;28;20818;-70
2022/05/19 05:28:34;;;;;;;4.13;3.80;;;22.60;64.60;;;;;;5002266;28;20507;-70
2022/05/19 05:31:00;;;;;;;4.90;4.13;;;22.70;64.10;;;;;;5005196;28;20456;-70
2022/05/19 05:33:26;;;;;;;4.77;3.77;;;22.80;63.90;;;;;;5004635;28;20441;-69
2022/05/19 05:35:52;;;;;;;5.83;4.20;;;22.80;63.90;;;;;;5004393;28;20244;-69
2022/05/19 05:38:17;;;;;;;5.40;3.50;;;22.80;63.60;;;;;;5003860;28;20522;-69
2022/05/19 05:40:44;;;;;;;11.20;3.90;;;22.80;63.90;;;;;;5002277;28;20665;-69
2022/05/19 05:43:12;;;;;;;7.87;4.73;;;22.80;63.50;;;;;;5004322;28;20188;-69
2022/05/19 05:45:38;;;;;;;10.30;3.80;;;22.80;63.90;;;;;;5003846;28;20486;-69
2022/05/19 05:48:05;;;;;;;4.50;3.77;;;22.80;63.70;;;;;;5003248;28;20984;-69
2022/05/19 05:50:30;;;;;;;5.13;3.60;;;22.70;64.00;;;;;;5001222;28;20574;-71
2022/05/19 05:52:56;;;;;;;9.63;3.70;;;22.80;64.00;;;;;;5003433;28;20514;-70
2022/05/19 05:55:21;;;;;;;7.07;4.10;;;22.70;64.40;;;;;;5003105;28;20300;-71
2022/05/19 05:57:47;;;;;;;6.20;4.10;;;22.80;64.50;;;;;;4999198;28;20228;-71
2022/05/19 06:00:13;;;;;;;5.87;4.40;;;22.80;64.50;;;;;;4999873;28;20256;-70
2022/05/19 06:02:40;;;;;;;7.37;4.07;;;22.80;64.90;;;;;;5003432;28;20181;-70
2022/05/19 06:05:07;;;;;;;5.17;3.67;;;22.90;65.00;;;;;;4998561;28;20431;-71
2022/05/19 06:07:32;;;;;;;6.43;4.97;;;22.80;63.80;;;;;;5001485;28;20467;-69
2022/05/19 06:09:58;;;;;;;6.77;3.90;;;22.80;63.90;;;;;;5005022;28;20435;-69
2022/05/19 06:12:25;;;;;;;7.73;3.80;;;22.90;64.00;;;;;;5000407;28;20225;-69
2022/05/19 06:14:53;;;;;;;5.87;3.97;;;23.00;64.00;;;;;;4996885;28;20459;-68
2022/05/19 06:17:19;;;;;;;4.83;4.27;;;23.00;63.80;;;;;;4998906;28;20514;-69
2022/05/19 06:19:45;;;;;;;4.60;3.57;;;23.10;64.40;;;;;;4991981;28;20428;-71
2022/05/19 06:22:10;;;;;;;9.10;4.87;;;23.20;64.30;;;;;;4999319;28;20982;-71
2022/05/19 06:24:36;;;;;;;14.13;11.47;;;23.10;64.50;;;;;;4997300;28;20186;-71
2022/05/19 06:27:02;;;;;;;8.87;5.03;;;23.20;64.70;;;;;;4988901;28;20205;-74
2022/05/19 06:29:27;;;;;;;5.90;4.27;;;23.20;65.10;;;;;;5001803;28;20192;-73
2022/05/19 06:31:53;;;;;;;4.97;4.13;;;23.10;65.90;;;;;;4998102;28;20182;-71
2022/05/19 06:34:19;;;;;;;5.43;4.93;;;23.20;65.60;;;;;;5002760;28;20177;-70
2022/05/19 06:36:45;;;;;;;5.47;4.00;;;23.30;65.90;;;;;;4984976;28;20587;-71
2022/05/19 06:39:11;;;;;;;8.13;4.20;;;23.20;65.50;;;;;;4998123;28;20188;-74
2022/05/19 06:44:20;;;;;;;5.73;4.17;;;23.30;66.10;;;;;;4995372;28;20188;-72
2022/05/19 06:46:46;;;;;;;5.97;4.40;;;23.40;66.10;;;;;;5001134;28;20453;-72
2022/05/19 06:49:13;;;;;;;5.83;3.90;;;23.50;65.90;;;;;;5002943;28;20181;-71
2022/05/19 06:51:39;;;;;;;7.47;4.43;;;23.50;65.90;;;;;;4999741;28;20441;-69
2022/05/19 06:54:05;;;;;;;6.50;5.63;;;23.40;65.80;;;;;;5001721;28;20988;-71
2022/05/19 06:56:30;;;;;;;5.00;4.17;;;23.60;65.70;;;;;;5002322;28;20821;-71
2022/05/19 06:58:56;;;;;;;4.47;4.07;;;23.70;64.60;;;;;;5002825;28;20439;-71
2022/05/19 07:01:22;;;;;;;5.03;4.10;;;23.70;64.90;;;;;;5001895;28;20193;-72
2022/05/19 07:03:48;;;;;;;4.47;4.03;;;23.60;64.00;;;;;;5002697;28;20316;-71
2022/05/19 07:06:13;;;;;;;6.50;4.70;;;23.70;64.40;;;;;;5004326;28;20209;-72
2022/05/19 07:08:40;;;;;;;5.70;4.47;;;23.80;64.70;;;;;;4989689;28;20479;-71
2022/05/19 07:11:06;;;;;;;4.60;4.20;;;23.90;63.40;;;;;;5003597;28;20662;-71
2022/05/19 07:13:31;;;;;;;8.53;4.97;;;23.90;65.20;;;;;;4999007;28;20504;-72
2022/05/19 07:15:59;;;;;;;5.10;4.60;;;24.00;66.50;;;;;;5000689;28;20847;-71
2022/05/19 07:18:25;;;;;;;5.20;4.70;;;23.90;65.70;;;;;;4999612;28;20204;-71
2022/05/19 07:20:52;;;;;;;6.00;4.67;;;24.00;65.50;;;;;;4999598;28;20917;-71
2022/05/19 07:23:20;;;;;;;5.43;4.63;;;24.00;63.80;;;;;;5001318;28;20181;-73
2022/05/19 07:25:47;;;;;;;5.20;4.23;;;24.00;63.70;;;;;;5001169;28;21157;-73
2022/05/19 07:28:14;;;;;;;5.57;4.50;;;24.00;64.30;;;;;;5002139;28;20535;-75
2022/05/19 07:30:41;;;;;;;5.27;4.77;;;24.00;64.70;;;;;;5003868;28;20424;-76
2022/05/19 07:33:07;;;;;;;4.57;4.17;;;24.00;65.40;;;;;;5001956;28;20471;-74
2022/05/19 07:35:34;;;;;;;7.27;3.93;;;24.00;65.70;;;;;;4999932;28;20507;-75
2022/05/19 07:37:59;;;;;;;6.47;4.30;;;24.00;66.40;;;;;;4998701;28;20460;-76
2022/05/19 07:40:25;;;;;;;5.17;4.77;;;24.00;66.80;;;;;;4999630;28;20433;-75
2022/05/19 07:42:51;;;;;;;7.00;5.17;;;24.10;67.10;;;;;;4997415;28;20232;-73
2022/05/19 07:45:17;;;;;;;6.20;4.63;;;24.00;67.40;;;;;;4997405;28;20451;-73
2022/05/19 07:47:43;;;;;;;5.13;4.60;;;24.20;67.60;;;;;;4999943;28;20213;-74
2022/05/19 07:50:10;;;;;;;5.33;4.83;;;24.10;67.40;;;;;;4997363;28;20240;-74
2022/05/19 07:52:37;;;;;;;5.13;4.63;;;24.10;67.60;;;;;;4996419;28;20185;-75
2022/05/19 07:55:03;;;;;;;7.60;5.57;;;24.10;67.90;;;;;;4995805;28;20479;-68
2022/05/19 07:57:28;;;;;;;5.93;4.80;;;24.30;68.00;;;;;;5002295;28;20578;-69
2022/05/19 07:59:54;;;;;;;11.83;6.00;;;24.40;68.30;;;;;;4998780;28;20510;-69
2022/05/19 08:02:20;;;;;;;5.57;5.07;;;24.50;68.00;;;;;;5000603;28;22357;-68
2022/05/19 08:04:46;;;;;;;5.53;5.03;;;24.50;67.90;;;;;;4998118;28;20187;-68
2022/05/19 08:07:12;;;;;;;9.47;5.97;;;24.70;68.40;;;;;;4998084;28;20197;-69
2022/05/19 08:17:56;;;;;;;5.80;5.20;;;25.20;66.30;;;;;;4999457;28;20482;-72
2022/05/19 08:20:22;;;;;;;5.10;4.60;;;25.30;65.90;;;;;;4999067;28;21207;-72
2022/05/19 08:22:47;;;;;;;8.97;7.73;;;25.20;65.90;;;;;;4996984;28;20249;-70
2022/05/19 08:25:14;;;;;;;5.57;4.63;;;25.30;66.20;;;;;;4996301;28;20661;-70
2022/05/19 08:27:42;;;;;;;6.03;4.70;;;25.50;64.60;;;;;;4996285;28;20312;-70
2022/05/19 08:30:10;;;;;;;4.47;4.07;;;25.60;64.40;;;;;;4999551;28;21115;-71
2022/05/19 08:32:35;;;;;;;4.80;4.30;;;25.70;63.70;;;;;;4996799;28;20534;-71
2022/05/19 08:35:01;;;;;;;5.43;4.40;;;25.80;63.50;;;;;;4997173;28;20958;-71
2022/05/19 08:37:26;;;;;;;4.50;4.13;;;25.90;63.80;;;;;;4999890;28;20225;-69
2022/05/19 08:39:52;;;;;;;5.50;4.50;;;25.80;64.50;;;;;;4996522;28;21045;-69
2022/05/19 08:42:19;;;;;;;4.80;4.40;;;25.80;64.80;;;;;;4998655;28;20194;-69
2022/05/19 08:44:52;;;;;;;4.73;4.33;;;26.00;63.90;;;;;;4999868;28;20184;-69
2022/05/19 08:47:24;;;;;;;6.60;4.97;;;26.10;63.20;;;;;;4997458;28;20865;-69
2022/05/19 08:49:58;;;;;;;5.00;4.50;;;26.20;64.10;;;;;;4995894;28;20786;-69
2022/05/19 08:52:27;;;;;;;6.50;4.70;;;26.30;64.50;;;;;;4997919;28;20799;-69
2022/05/19 08:54:55;;;;;;;5.30;4.80;;;26.40;64.20;;;;;;5001927;28;20467;-69
2022/05/19 08:57:31;;;;;;;6.00;5.07;;;26.30;64.40;;;;;;4998919;28;20468;-69
2022/05/19 09:00:06;;;;;;;11.33;4.70;;;26.30;64.90;;;;;;5000645;28;20424;-69
2022/05/19 09:03:05;;;;;;;4.90;4.50;;;26.30;64.80;;;;;;4979219;28;21255;-69
2022/05/19 09:05:50;;;;;;;7.80;5.30;;;26.50;64.10;;;;;;4996032;28;20439;-70
2022/05/19 09:08:40;;;;;;;5.47;4.93;;;26.50;63.60;;;;;;4997951;28;20660;-69
2022/05/19 09:11:18;;;;;;;5.57;4.97;;;26.50;64.50;;;;;;5001917;28;20444;-69
2022/05/19 09:13:55;;;;;;;5.50;4.90;;;26.70;63.40;;;;;;4995987;28;20432;-69
2022/05/19 09:16:24;;;;;;;5.83;4.77;;;26.70;63.80;;;;;;4998053;28;20475;-69
2022/05/19 09:19:10;;;;;;;6.40;5.23;;;26.60;64.30;;;;;;4999090;28;20449;-69
2022/05/19 09:21:38;;;;;;;6.33;5.67;;;26.60;64.50;;;;;;4984992;28;20868;-69
2022/05/19 09:24:05;;;;;;;4.93;4.43;;;26.60;64.50;;;;;;4997666;28;20433;-69
2022/05/19 09:26:52;;;;;;;5.50;5.00;;;26.50;64.90;;;;;;4996997;28;20931;-68
2022/05/19 09:29:21;;;;;;;5.97;5.20;;;26.50;64.30;;;;;;5002960;28;20435;-68
2022/05/19 09:31:50;;;;;;;5.47;4.70;;;26.50;64.40;;;;;;5001051;28;20530;-69
2022/05/19 09:34:16;;;;;;;4.73;4.33;;;26.50;65.30;;;;;;4998442;28;20444;-69
2022/05/19 09:37:01;;;;;;;8.90;4.83;;;26.50;65.40;;;;;;4999000;28;20559;-68
2022/05/19 09:39:33;;;;;;;6.93;4.87;;;26.70;65.00;;;;;;5000822;28;20454;-69
2022/05/19 09:42:05;;;;;;;5.00;4.60;;;26.90;65.30;;;;;;4999054;28;20433;-69
2022/05/19 09:44:32;;;;;;;5.90;4.80;;;27.00;64.90;;;;;;5000957;28;20435;-69
2022/05/19 09:47:13;;;;;;;5.60;4.67;;;27.10;64.50;;;;;;5000208;28;20501;-69
2022/05/19 09:49:44;;;;;;;7.77;4.83;;;27.10;64.40;;;;;;5001792;28;20436;-69
2022/05/19 09:52:17;;;;;;;5.10;4.70;;;27.10;64.60;;;;;;4997962;28;20431;-69
2022/05/19 09:54:51;;;;;;;5.50;5.00;;;27.20;64.10;;;;;;4999912;28;20430;-69
2022/05/19 09:57:23;;;;;;;6.10;4.70;;;27.20;65.10;;;;;;4996891;28;20475;-69
2022/05/19 09:59:52;;;;;;;10.83;5.20;;;27.30;64.20;;;;;;4999999;28;20421;-69
2022/05/19 10:02:24;;;;;;;5.60;5.10;;;27.30;64.10;;;;;;4995712;28;20476;-70
2022/05/19 10:04:55;;;;;;;5.87;5.30;;;27.40;64.20;;;;;;4998362;28;20511;-70
2022/05/19 10:07:24;;;;;;;6.00;5.20;;;27.50;64.00;;;;;;4997524;28;20798;-70
2022/05/19 10:09:52;;;;;;;5.27;4.77;;;27.70;64.00;;;;;;5000223;28;20507;-70
2022/05/19 10:12:29;;;;;;;5.13;4.70;;;27.90;64.10;;;;;;5001105;28;20865;-70
2022/05/19 10:15:11;;;;;;;5.50;4.70;;;27.90;63.70;;;;;;5002094;28;20474;-69
2022/05/19 10:17:55;;;;;;;6.33;4.70;;;28.00;62.60;;;;;;4993371;28;20986;-69
2022/05/19 10:20:23;;;;;;;6.23;5.00;;;28.10;62.90;;;;;;4997366;28;20407;-69
2022/05/19 10:23:03;;;;;;;8.73;4.77;;;28.00;62.30;;;;;;5003204;28;20395;-69
2022/05/19 10:25:32;;;;;;;5.10;4.60;;;28.10;62.70;;;;;;5003667;28;20836;-69
2022/05/19 10:31:40;;;;;;;5.03;4.53;;;28.20;62.20;;;;;;5002881;28;20450;-69
2022/05/19 10:34:15;;;;;;;4.93;4.43;;;28.20;62.70;;;;;;4984356;28;20483;-69
2022/05/19 10:36:53;;;;;;;5.23;4.63;;;28.30;62.90;;;;;;5001269;28;20475;-69
2022/05/19 10:39:30;;;;;;;8.20;5.83;;;28.30;63.20;;;;;;5000879;28;20474;-69
2022/05/19 10:41:59;;;;;;;5.93;4.97;;;28.50;62.60;;;;;;5000366;28;20444;-69
2022/05/19 10:44:36;;;;;;;5.87;5.27;;;28.60;62.40;;;;;;5000626;28;20482;-69
2022/05/19 10:47:21;;;;;;;5.93;5.20;;;28.60;62.40;;;;;;5003669;28;20448;-68
2022/05/19 10:49:55;;;;;;;5.63;5.13;;;28.70;62.20;;;;;;5001945;28;20424;-69
2022/05/19 10:52:39;;;;;;;8.33;5.17;;;28.70;61.50;;;;;;5003220;28;20480;-69
2022/05/19 10:55:33;;;;;;;5.87;4.90;;;28.80;61.00;;;;;;5003641;28;20530;-69
2022/05/19 10:58:10;;;;;;;10.27;4.80;;;28.90;60.50;;;;;;5001531;28;20889;-69
2022/05/19 11:00:57;;;;;;;7.73;4.87;;;29.10;60.90;;;;;;5002923;28;20427;-69
2022/05/19 11:03:54;;;;;;;7.03;4.30;;;29.30;59.70;;;;;;5000316;28;20456;-69
2022/05/19 11:06:38;;;;;;;5.47;4.50;;;29.40;59.00;;;;;;5002226;28;20435;-69
2022/05/19 11:09:29;;;;;;;6.70;4.80;;;29.60;59.90;;;;;;5000997;28;20444;-69
2022/05/19 11:12:11;;;;;;;11.40;5.23;;;29.60;60.20;;;;;;5001933;28;20418;-69
2022/05/19 11:14:46;;;;;;;5.43;4.93;;;29.60;59.40;;;;;;5004797;28;20431;-69
2022/05/19 11:17:48;;;;;;;4.47;4.07;;;29.70;59.00;;;;;;4998736;28;20450;-69
2022/05/19 11:20:26;;;;;;;5.07;4.57;;;29.70;58.50;;;;;;5001917;28;20414;-69
2022/05/19 11:23:00;;;;;;;5.33;4.83;;;29.70;58.40;;;;;;4999270;28;20414;-69
2022/05/19 11:28:22;;;;;;;5.10;4.23;;;30.20;58.80;;;;;;5000924;28;20437;-69
2022/05/19 11:30:58;;;;;;;4.73;4.30;;;30.30;57.50;;;;;;5003681;28;20920;-68
2022/05/19 11:33:28;;;;;;;6.07;4.63;;;30.40;57.90;;;;;;4995504;28;20414;-68
2022/05/19 11:36:07;;;;;;;6.23;4.43;;;30.70;57.30;;;;;;4999429;28;20460;-68
2022/05/19 11:38:54;;;;;;;4.70;4.30;;;30.80;56.30;;;;;;5003266;28;20409;-70
2022/05/19 11:41:26;;;;;;;5.50;4.60;;;31.10;56.60;;;;;;5002755;28;20425;-68
2022/05/19 11:44:03;;;;;;;9.23;5.00;;;31.30;55.70;;;;;;4999564;28;20986;-69
2022/05/19 11:46:33;;;;;;;5.03;4.53;;;31.50;55.50;;;;;;5002365;28;20461;-69
2022/05/19 11:55:19;;;;;;;6.13;4.90;;;32.80;53.20;;;;;;5000198;28;20951;-68
2022/05/19 11:57:52;;;;;;;8.83;4.37;;;32.90;53.10;;;;;;5002313;28;20464;-68
2022/05/19 12:00:28;;;;;;;4.73;4.10;;;33.00;52.50;;;;;;5001601;28;20806;-70
2022/05/19 12:03:21;;;;;;;6.83;4.73;;;33.50;50.90;;;;;;5000117;28;20804;-71
2022/05/19 12:06:21;;;;;;;6.10;4.57;;;34.10;49.40;;;;;;4998095;28;20441;-71
2022/05/19 12:09:05;;;;;;;5.33;4.83;;;34.60;48.10;;;;;;4991376;28;20444;-70
2022/05/19 12:11:47;;;;;;;9.30;4.17;;;35.50;47.80;;;;;;5002065;28;21071;-71
2022/05/19 12:14:25;;;;;;;5.60;4.40;;;36.30;47.10;;;;;;5000770;28;20812;-71
2022/05/19 12:17:07;;;;;;;9.50;4.37;;;37.20;45.80;;;;;;4999252;28;20471;-71
2022/05/19 12:19:52;;;;;;;5.03;4.53;;;37.90;44.80;;;;;;4999584;28;20456;-71
2022/05/19 12:22:43;;;;;;;4.10;3.70;;;38.10;45.10;;;;;;4994329;28;20929;-65
2022/05/19 12:25:23;;;;;;;4.43;3.80;;;39.50;42.30;;;;;;5001315;28;20424;-69
2022/05/19 12:27:56;;;;;;;5.90;4.03;;;40.00;40.60;;;;;;5000411;28;20521;-71
2022/05/19 12:33:37;;;;;;;3.73;3.40;;;39.40;40.80;;;;;;4994388;28;20435;-70
2022/05/19 12:36:07;;;;;;;4.67;4.27;;;39.30;40.40;;;;;;4999241;28;20460;-69
2022/05/19 12:38:39;;;;;;;6.23;3.90;;;39.00;38.90;;;;;;4997083;28;20465;-71
2022/05/19 12:41:07;;;;;;;4.93;3.30;;;40.30;38.30;;;;;;4995953;28;20971;-70
2022/05/19 12:43:44;;;;;;;7.30;4.27;;;40.50;37.70;;;;;;4998173;28;20443;-68
2022/05/19 12:46:13;;;;;;;5.03;3.70;;;41.20;37.50;;;;;;4999361;28;20423;-67
2022/05/19 12:48:39;;;;;;;4.27;3.73;;;41.80;36.90;;;;;;4984814;28;20436;-66
2022/05/19 12:51:14;;;;;;;4.93;3.97;;;42.20;36.60;;;;;;4999201;28;20518;-70
2022/05/19 12:53:49;;;;;;;5.40;3.80;;;42.30;35.20;;;;;;4999288;28;20172;-70
2022/05/19 12:56:46;;;;;;;4.07;3.67;;;42.10;34.70;;;;;;4997707;28;20467;-69
2022/05/19 12:59:36;;;;;;;4.10;3.70;;;42.20;35.30;;;;;;4999372;28;20796;-69
2022/05/19 13:02:08;;;;;;;9.00;4.20;;;42.00;34.30;;;;;;5001836;28;20522;-72
2022/05/19 13:04:43;;;;;;;4.97;3.93;;;42.10;34.60;;;;;;4995349;28;20495;-65
2022/05/19 13:07:24;;;;;;;6.10;4.30;;;41.30;35.10;;;;;;4997620;28;21062;-67
2022/05/19 13:09:54;;;;;;;3.87;3.57;;;41.30;35.30;;;;;;4999710;28;20987;-70
2022/05/19 13:12:24;;;;;;;4.30;4.00;;;40.90;35.70;;;;;;4999411;28;20804;-70
2022/05/19 13:14:58;;;;;;;4.63;4.00;;;40.10;36.00;;;;;;4996616;28;20431;-70
2022/05/19 13:17:43;;;;;;;5.50;4.80;;;39.30;36.70;;;;;;4997425;28;20495;-70
2022/05/19 13:20:33;;;;;;;9.67;5.30;;;38.80;37.70;;;;;;5000488;28;20495;-69
2022/05/19 13:23:03;;;;;;;4.63;4.23;;;38.40;38.30;;;;;;4996825;28;20454;-69
2022/05/19 13:25:32;;;;;;;4.73;4.33;;;37.60;39.00;;;;;;4999892;28;20444;-68
2022/05/19 13:30:58;;;;;;;4.90;4.40;;;37.70;39.70;;;;;;5000136;28;20566;-68
2022/05/19 13:33:46;;;;;;;6.40;4.60;;;38.30;39.30;;;;;;4999316;28;20522;-69
2022/05/19 13:36:12;;;;;;;6.57;3.93;;;39.00;38.60;;;;;;5000192;28;20227;-72